Time;durP1;ratioP1;P1;durP2;ratioP2;P2;SDS_P1;SDS_P2;PMS_P1;PMS_P2;Temp;Humidity;BMP_temperature;BMP_pressure;BME280_temperature;BME280_humidity;BME280_pressure;Samples;Min_cycle;Max_cycle;Signal;HPM_P1;HPM_P2
2023/02/28 00:02:17;;;;;;;5.77;1.80;;;-0.30;99.90;;;;;;5049846;28;20464;-56
2023/02/28 00:04:43;;;;;;;9.48;2.10;;;-0.30;99.90;;;;;;5049664;28;20377;-56
2023/02/28 00:07:09;;;;;;;9.30;2.45;;;-0.40;99.90;;;;;;5049673;28;20424;-56
2023/02/28 00:09:34;;;;;;;6.30;2.30;;;-0.40;99.90;;;;;;5049390;28;20391;-55
2023/02/28 00:12:03;;;;;;;6.40;2.00;;;0.40;99.90;;;;;;5048936;28;20742;-55
2023/02/28 00:14:30;;;;;;;8.48;2.40;;;-0.40;99.90;;;;;;5049983;28;20382;-55
2023/02/28 00:16:55;;;;;;;8.05;2.55;;;-0.40;99.90;;;;;;5049231;28;20389;-55
2023/02/28 00:19:21;;;;;;;7.00;2.70;;;-0.30;99.90;;;;;;5049768;28;20874;-55
2023/02/28 00:21:46;;;;;;;6.50;2.33;;;-0.30;99.90;;;;;;5048953;28;20425;-56
2023/02/28 00:24:12;;;;;;;8.10;2.70;;;-0.40;99.90;;;;;;5049545;28;20388;-55
2023/02/28 00:26:38;;;;;;;6.53;2.27;;;-0.40;99.90;;;;;;5049790;28;20424;-56
2023/02/28 00:29:04;;;;;;;9.82;2.80;;;-0.50;99.90;;;;;;5048989;28;20922;-55
2023/02/28 00:31:29;;;;;;;7.37;2.50;;;-0.40;99.90;;;;;;5049603;28;20381;-55
2023/02/28 00:33:55;;;;;;;7.83;2.83;;;-0.30;99.90;;;;;;5048886;28;20386;-56
2023/02/28 00:36:20;;;;;;;7.15;2.40;;;-0.40;99.90;;;;;;5049430;28;20857;-55
2023/02/28 00:38:46;;;;;;;7.67;2.60;;;-0.30;99.90;;;;;;5047475;28;20419;-55
2023/02/28 00:41:11;;;;;;;9.70;3.40;;;-0.40;99.90;;;;;;5049106;28;20558;-55
2023/02/28 00:43:38;;;;;;;8.50;2.72;;;-0.40;99.90;;;;;;5049139;28;20492;-55
2023/02/28 00:46:05;;;;;;;7.10;2.80;;;-0.40;99.90;;;;;;5048196;28;20373;-55
2023/02/28 00:48:31;;;;;;;8.30;2.80;;;-0.40;99.90;;;;;;5049844;28;21073;-55
2023/02/28 00:50:56;;;;;;;9.18;2.30;;;-0.40;99.90;;;;;;5052956;28;20885;-55
2023/02/28 00:53:22;;;;;;;8.80;2.80;;;-0.40;99.90;;;;;;5051705;28;20491;-55
2023/02/28 00:55:49;;;;;;;6.95;2.90;;;-0.40;99.90;;;;;;5052480;28;20397;-55
2023/02/28 00:58:15;;;;;;;7.82;3.00;;;-0.40;99.90;;;;;;5051798;28;20881;-55
2023/02/28 01:00:40;;;;;;;8.03;2.77;;;-0.50;99.90;;;;;;5053162;28;20397;-56
2023/02/28 01:03:06;;;;;;;6.60;2.50;;;-0.50;99.90;;;;;;5052144;28;20451;-56
2023/02/28 01:05:33;;;;;;;6.95;2.70;;;-0.40;99.90;;;;;;5053120;28;20392;-56
2023/02/28 01:07:59;;;;;;;6.75;2.83;;;-0.40;99.90;;;;;;5052777;28;20389;-56
2023/02/28 01:10:25;;;;;;;7.50;2.63;;;-0.50;99.90;;;;;;5053292;28;20625;-56
2023/02/28 01:12:51;;;;;;;6.78;2.53;;;-0.60;99.90;;;;;;5052606;28;20378;-56
2023/02/28 01:15:16;;;;;;;8.40;2.80;;;-0.50;99.90;;;;;;5052493;28;20385;-56
2023/02/28 01:17:42;;;;;;;9.35;2.70;;;-0.50;99.90;;;;;;5053160;28;20384;-56
2023/02/28 01:20:09;;;;;;;8.93;3.50;;;-0.40;99.90;;;;;;5052543;28;20791;-56
2023/02/28 01:22:35;;;;;;;8.15;3.00;;;-0.50;99.90;;;;;;5052821;28;20389;-56
2023/02/28 01:25:00;;;;;;;7.57;3.00;;;-0.90;99.90;;;;;;5051886;28;20394;-56
2023/02/28 01:27:26;;;;;;;7.63;2.90;;;-0.50;99.90;;;;;;5052189;28;20916;-56
2023/02/28 01:29:52;;;;;;;9.70;2.80;;;-0.50;99.90;;;;;;5051679;28;20393;-56
2023/02/28 01:32:18;;;;;;;7.55;2.70;;;-0.50;99.90;;;;;;5052568;28;20376;-55
2023/02/28 01:34:43;;;;;;;8.32;2.80;;;1.10;99.90;;;;;;5052291;28;20408;-56
2023/02/28 01:37:09;;;;;;;7.70;2.77;;;-0.50;99.90;;;;;;5051974;28;20383;-56
2023/02/28 01:39:36;;;;;;;9.80;3.08;;;-0.50;99.90;;;;;;5052237;28;20428;-56
2023/02/28 01:42:01;;;;;;;7.80;2.80;;;-0.60;99.90;;;;;;5051471;28;20440;-56
2023/02/28 01:45:05;;;;;;;8.50;3.13;;;-0.60;99.90;;;;;;5052628;28;20420;-56
2023/02/28 01:47:36;;;;;;;8.10;3.42;;;-0.60;99.90;;;;;;5052288;28;20398;-56
2023/02/28 01:50:08;;;;;;;7.65;3.33;;;-0.50;99.90;;;;;;5052053;28;20388;-56
2023/02/28 01:52:34;;;;;;;6.82;2.85;;;-0.50;99.90;;;;;;5051855;28;20483;-56
2023/02/28 01:55:04;;;;;;;8.23;3.10;;;0.40;99.90;;;;;;5051637;28;20479;-56
2023/02/28 01:57:37;;;;;;;11.02;3.20;;;-0.60;99.90;;;;;;5052141;28;20377;-56
2023/02/28 02:00:13;;;;;;;8.40;3.00;;;-0.50;99.90;;;;;;5050946;28;20498;-56
2023/02/28 02:02:42;;;;;;;9.90;3.10;;;-0.60;99.90;;;;;;5052120;28;20385;-56
2023/02/28 02:05:10;;;;;;;7.03;2.58;;;-0.60;99.90;;;;;;5051329;28;20396;-56
2023/02/28 02:07:39;;;;;;;8.40;2.80;;;0.50;99.90;;;;;;5051655;28;20382;-56
2023/02/28 02:10:16;;;;;;;8.57;3.50;;;-0.50;99.90;;;;;;5050997;28;20961;-56
2023/02/28 02:12:58;;;;;;;7.35;3.10;;;-0.40;99.90;;;;;;5051287;28;20385;-56
2023/02/28 02:15:46;;;;;;;8.35;2.85;;;-0.40;99.90;;;;;;5052048;28;20385;-56
2023/02/28 02:18:49;;;;;;;8.82;3.00;;;-0.50;99.90;;;;;;5051754;28;20480;-56
2023/02/28 02:21:21;;;;;;;8.82;3.00;;;-0.60;99.90;;;;;;5051610;28;20885;-56
2023/02/28 02:23:52;;;;;;;9.80;3.00;;;-0.60;99.90;;;;;;5050966;28;20459;-57
2023/02/28 02:26:55;;;;;;;8.80;3.00;;;-0.50;99.90;;;;;;5051605;28;20414;-55
2023/02/28 02:29:55;;;;;;;8.07;3.20;;;-0.50;99.90;;;;;;5051392;28;20413;-56
2023/02/28 02:32:51;;;;;;;9.10;3.10;;;-0.50;99.90;;;;;;5037628;28;20455;-56
2023/02/28 02:35:28;;;;;;;9.27;3.20;;;-0.40;99.90;;;;;;5051510;28;20464;-56
2023/02/28 02:38:25;;;;;;;9.20;3.00;;;-0.40;99.90;;;;;;5050455;28;20377;-56
2023/02/28 02:41:14;;;;;;;9.32;2.92;;;-0.50;99.90;;;;;;5051199;28;20858;-56
2023/02/28 02:44:09;;;;;;;8.00;3.40;;;-0.60;99.90;;;;;;5050258;28;20451;-56
2023/02/28 02:46:41;;;;;;;10.20;3.03;;;-0.60;99.90;;;;;;5050886;28;20389;-56
2023/02/28 02:49:10;;;;;;;8.55;3.10;;;-0.70;99.90;;;;;;5049239;28;20717;-56
2023/02/28 02:51:38;;;;;;;10.98;3.50;;;-0.60;99.90;;;;;;5051005;28;20393;-56
2023/02/28 02:54:28;;;;;;;9.25;3.40;;;-0.50;99.90;;;;;;5050893;28;20417;-56
2023/02/28 02:56:56;;;;;;;9.30;3.50;;;-0.60;99.90;;;;;;5050105;28;20877;-56
2023/02/28 02:59:23;;;;;;;6.30;2.42;;;0.70;99.90;;;;;;5050802;28;20469;-56
2023/02/28 03:01:55;;;;;;;7.65;2.78;;;-0.30;99.90;;;;;;5049309;28;20484;-56
2023/02/28 03:04:23;;;;;;;9.00;3.50;;;-0.40;99.90;;;;;;5049472;28;20462;-56
2023/02/28 03:06:54;;;;;;;8.43;3.00;;;-0.40;99.90;;;;;;5050142;28;20381;-56
2023/02/28 03:09:22;;;;;;;8.45;3.35;;;-0.40;99.90;;;;;;5050614;28;20385;-56
2023/02/28 03:11:48;;;;;;;7.85;3.17;;;-0.40;99.90;;;;;;5049775;28;20393;-56
2023/02/28 03:14:56;;;;;;;10.35;3.60;;;-0.50;99.90;;;;;;5050375;28;20488;-56
2023/02/28 03:17:41;;;;;;;8.88;3.38;;;-0.50;99.90;;;;;;5050492;28;20911;-56
2023/02/28 03:20:28;;;;;;;8.30;2.70;;;-0.40;99.90;;;;;;5050120;28;20408;-56
2023/02/28 03:23:28;;;;;;;9.13;3.40;;;-0.50;99.90;;;;;;5049690;28;20392;-56
2023/02/28 03:26:02;;;;;;;11.13;3.60;;;-0.50;99.90;;;;;;5050256;28;20397;-57
2023/02/28 03:28:46;;;;;;;9.48;3.15;;;-0.50;99.90;;;;;;5050488;28;20470;-56
2023/02/28 03:31:42;;;;;;;10.10;3.90;;;-0.40;99.90;;;;;;5052585;28;20417;-56
2023/02/28 03:34:18;;;;;;;9.10;3.45;;;-0.40;99.90;;;;;;5049014;28;20859;-56
2023/02/28 03:36:53;;;;;;;9.00;3.40;;;-0.40;99.90;;;;;;5050454;28;20381;-56
2023/02/28 03:39:33;;;;;;;9.65;3.75;;;-0.30;99.90;;;;;;5050283;28;20377;-56
2023/02/28 03:42:04;;;;;;;9.85;3.28;;;-0.20;99.90;;;;;;5049323;28;20393;-56
2023/02/28 03:44:35;;;;;;;7.40;3.00;;;-0.10;99.90;;;;;;5050104;28;20412;-56
2023/02/28 03:47:07;;;;;;;8.80;3.35;;;-0.20;99.90;;;;;;5049126;28;20743;-56
2023/02/28 03:49:45;;;;;;;8.80;3.40;;;-0.20;99.90;;;;;;5049675;28;20373;-56
2023/02/28 03:52:33;;;;;;;8.50;3.45;;;-0.20;99.90;;;;;;5049860;28;20459;-56
2023/02/28 03:55:06;;;;;;;8.83;3.60;;;-0.20;99.90;;;;;;5049304;28;20429;-56
2023/02/28 03:57:47;;;;;;;11.43;4.20;;;-0.10;99.90;;;;;;5032474;28;20817;-56
2023/02/28 04:00:25;;;;;;;8.77;4.00;;;0.00;99.90;;;;;;5049397;28;20504;-57
2023/02/28 04:02:52;;;;;;;9.70;3.55;;;1.00;99.90;;;;;;5059740;28;20465;-56
2023/02/28 04:05:22;;;;;;;8.73;3.25;;;0.00;99.90;;;;;;5049778;28;20389;-56
2023/02/28 04:07:48;;;;;;;9.05;3.70;;;0.10;99.90;;;;;;5064777;28;20407;-56
2023/02/28 04:10:16;;;;;;;9.45;3.47;;;-0.10;99.90;;;;;;5063140;28;20385;-56
2023/02/28 04:12:41;;;;;;;9.73;3.60;;;-0.10;99.90;;;;;;5049580;28;20397;-56
2023/02/28 04:15:08;;;;;;;9.40;3.90;;;0.90;99.90;;;;;;5049021;28;20522;-56
2023/02/28 04:17:33;;;;;;;10.80;4.05;;;0.00;99.90;;;;;;5049550;28;20420;-56
2023/02/28 04:19:59;;;;;;;13.63;3.70;;;-0.20;99.90;;;;;;5066851;28;20525;-56
2023/02/28 04:22:27;;;;;;;9.18;3.40;;;-0.10;99.90;;;;;;5069882;28;20759;-56
2023/02/28 04:24:56;;;;;;;9.80;3.60;;;-0.20;99.90;;;;;;5071637;28;20395;-56
2023/02/28 04:27:21;;;;;;;8.60;3.70;;;-0.20;99.90;;;;;;5073799;28;21218;-56
2023/02/28 04:29:47;;;;;;;8.50;3.43;;;-0.20;99.90;;;;;;5073749;28;20407;-56
2023/02/28 04:32:13;;;;;;;8.40;3.50;;;-0.40;99.90;;;;;;5056666;28;20758;-56
2023/02/28 04:34:39;;;;;;;10.15;3.92;;;-0.30;99.90;;;;;;5070457;28;20387;-56
2023/02/28 04:37:05;;;;;;;10.27;3.72;;;0.50;99.90;;;;;;5073263;28;20371;-56
2023/02/28 04:39:35;;;;;;;10.20;3.05;;;-0.20;99.90;;;;;;5073671;28;20474;-56
2023/02/28 04:42:01;;;;;;;10.70;3.92;;;-0.30;99.90;;;;;;5072896;28;20415;-56
2023/02/28 04:44:26;;;;;;;9.77;4.13;;;-0.10;99.90;;;;;;5072076;28;20493;-56
2023/02/28 04:46:52;;;;;;;10.57;3.70;;;-0.20;99.90;;;;;;5072075;28;20384;-56
2023/02/28 04:49:17;;;;;;;9.73;3.20;;;-0.20;99.90;;;;;;5068257;28;20414;-56
2023/02/28 04:51:43;;;;;;;9.83;3.57;;;-0.20;99.90;;;;;;5073545;28;20391;-56
2023/02/28 04:54:09;;;;;;;9.43;3.47;;;-0.30;99.90;;;;;;5072761;28;20964;-56
2023/02/28 04:56:35;;;;;;;11.73;4.10;;;-0.30;99.90;;;;;;5073064;28;20440;-56
2023/02/28 04:59:01;;;;;;;8.53;3.50;;;-0.20;99.90;;;;;;5061566;28;20420;-56
2023/02/28 05:01:30;;;;;;;9.97;3.30;;;-0.20;99.90;;;;;;5053493;28;20402;-56
2023/02/28 05:03:58;;;;;;;13.45;3.90;;;-0.20;99.90;;;;;;5052327;28;20420;-56
2023/02/28 05:06:26;;;;;;;9.02;3.90;;;-0.10;99.90;;;;;;5052782;28;20436;-56
2023/02/28 05:08:53;;;;;;;8.82;3.78;;;-0.30;99.90;;;;;;5052439;28;20397;-56
2023/02/28 05:11:21;;;;;;;10.65;3.85;;;-0.30;99.90;;;;;;5072318;28;20835;-56
2023/02/28 05:13:47;;;;;;;12.77;4.88;;;-0.20;99.90;;;;;;5073082;28;20388;-56
2023/02/28 05:16:13;;;;;;;11.07;3.47;;;-0.10;99.90;;;;;;5072369;28;20384;-56
2023/02/28 05:18:45;;;;;;;10.33;3.40;;;-0.10;99.90;;;;;;5072774;28;20388;-56
2023/02/28 05:21:29;;;;;;;11.60;4.10;;;-0.30;99.90;;;;;;5072188;28;20835;-56
2023/02/28 05:23:56;;;;;;;11.80;4.18;;;-0.40;99.90;;;;;;5071725;28;20383;-56
2023/02/28 05:26:22;;;;;;;10.45;3.42;;;-0.30;99.90;;;;;;5072562;28;20419;-56
2023/02/28 05:28:57;;;;;;;11.43;4.55;;;-0.30;99.90;;;;;;5072052;28;20400;-56
2023/02/28 05:31:23;;;;;;;10.47;3.43;;;-0.20;99.90;;;;;;5072788;28;20884;-56
2023/02/28 05:33:49;;;;;;;11.80;4.00;;;-0.30;99.90;;;;;;5071839;28;20424;-56
2023/02/28 05:36:14;;;;;;;12.77;3.90;;;-0.30;99.90;;;;;;5052533;28;20463;-56
2023/02/28 05:38:40;;;;;;;10.25;4.00;;;-0.10;99.90;;;;;;5064817;28;20787;-56
2023/02/28 05:41:10;;;;;;;9.23;3.90;;;-0.20;99.90;;;;;;5071278;28;20417;-56
2023/02/28 05:43:37;;;;;;;10.95;4.38;;;-0.20;99.90;;;;;;5072056;28;20474;-56
2023/02/28 05:46:07;;;;;;;12.15;4.30;;;-0.20;99.90;;;;;;5058716;28;20397;-56
2023/02/28 05:48:42;;;;;;;10.83;4.33;;;-0.20;99.90;;;;;;5069191;28;20552;-56
2023/02/28 05:51:08;;;;;;;12.23;4.85;;;-0.10;99.90;;;;;;5059289;28;20669;-56
2023/02/28 05:53:34;;;;;;;10.23;4.18;;;0.00;99.90;;;;;;5077289;28;20379;-56
2023/02/28 05:56:00;;;;;;;14.20;5.18;;;0.00;99.90;;;;;;5071571;28;20861;-56
2023/02/28 05:58:29;;;;;;;12.13;4.55;;;0.10;99.90;;;;;;5072071;28;20404;-56
2023/02/28 06:00:54;;;;;;;9.90;4.00;;;0.10;99.90;;;;;;5071460;28;20457;-56
2023/02/28 06:03:20;;;;;;;9.90;3.67;;;0.10;99.90;;;;;;5069151;28;20878;-56
2023/02/28 06:05:45;;;;;;;10.00;3.87;;;0.00;99.90;;;;;;5071903;28;20432;-56
2023/02/28 06:08:11;;;;;;;10.35;4.25;;;0.10;99.90;;;;;;5051056;28;20381;-56
2023/02/28 06:10:37;;;;;;;10.50;4.00;;;0.10;99.90;;;;;;5074801;28;20877;-56
2023/02/28 06:13:04;;;;;;;10.55;4.85;;;0.90;99.90;;;;;;5088862;28;20425;-56
2023/02/28 06:15:30;;;;;;;12.17;4.63;;;-0.10;99.90;;;;;;5086172;28;20372;-56
2023/02/28 06:17:59;;;;;;;13.63;5.20;;;-0.10;99.90;;;;;;5090749;28;20447;-56
2023/02/28 06:20:29;;;;;;;10.05;3.60;;;0.00;99.90;;;;;;5091448;28;20417;-56
2023/02/28 06:22:59;;;;;;;10.75;4.47;;;0.00;99.90;;;;;;5090749;28;20388;-56
2023/02/28 06:25:36;;;;;;;13.82;4.70;;;0.00;99.90;;;;;;5090869;28;20416;-56
2023/02/28 06:28:03;;;;;;;10.60;4.72;;;0.10;99.90;;;;;;5088116;28;20402;-56
2023/02/28 06:30:29;;;;;;;12.02;5.00;;;-0.10;99.90;;;;;;5091008;28;20457;-56
2023/02/28 06:32:55;;;;;;;11.85;4.65;;;0.00;99.90;;;;;;5090345;28;20388;-56
2023/02/28 06:35:22;;;;;;;11.93;4.40;;;0.10;99.90;;;;;;5090917;28;20461;-56
2023/02/28 06:37:48;;;;;;;11.75;4.15;;;0.00;99.90;;;;;;5090785;28;20420;-56
2023/02/28 06:40:14;;;;;;;12.75;4.88;;;0.00;99.90;;;;;;5083780;28;20407;-56
2023/02/28 06:42:40;;;;;;;11.73;4.97;;;0.10;99.90;;;;;;5071185;28;20422;-56
2023/02/28 06:45:08;;;;;;;11.03;4.10;;;0.20;99.90;;;;;;5053732;28;20441;-56
2023/02/28 06:47:36;;;;;;;11.77;4.18;;;0.20;99.90;;;;;;5050047;28;20377;-56
2023/02/28 06:50:01;;;;;;;14.35;5.95;;;0.20;99.90;;;;;;5049994;28;20391;-56
2023/02/28 06:52:27;;;;;;;14.30;5.30;;;0.20;99.90;;;;;;5050391;28;20382;-56
2023/02/28 06:54:59;;;;;;;20.73;4.60;;;0.40;99.90;;;;;;5049084;28;20402;-56
2023/02/28 06:57:27;;;;;;;13.10;4.32;;;0.40;99.90;;;;;;5050575;28;20381;-56
2023/02/28 06:59:53;;;;;;;11.32;4.38;;;0.30;99.90;;;;;;5050163;28;20412;-56
2023/02/28 07:02:18;;;;;;;12.80;4.20;;;0.20;99.90;;;;;;5051008;28;20390;-56
2023/02/28 07:04:44;;;;;;;12.33;5.20;;;0.20;99.90;;;;;;5056115;28;20746;-56
2023/02/28 07:07:11;;;;;;;11.63;4.65;;;0.30;99.90;;;;;;5070001;28;20376;-56
2023/02/28 07:09:37;;;;;;;10.60;4.15;;;0.30;99.90;;;;;;5069305;28;20392;-56
2023/02/28 07:12:02;;;;;;;13.43;5.22;;;0.20;99.90;;;;;;5069608;28;20391;-56
2023/02/28 07:14:28;;;;;;;12.23;4.93;;;0.20;99.90;;;;;;5070541;28;20386;-56
2023/02/28 07:16:54;;;;;;;12.87;4.70;;;0.30;99.90;;;;;;5069618;28;20733;-56
2023/02/28 07:19:20;;;;;;;12.82;4.90;;;0.30;99.90;;;;;;5068837;28;20384;-56
2023/02/28 07:21:46;;;;;;;12.52;5.57;;;0.40;99.90;;;;;;5069539;28;20445;-56
2023/02/28 07:24:11;;;;;;;10.35;4.85;;;0.50;99.90;;;;;;5069151;28;20540;-56
2023/02/28 07:26:37;;;;;;;11.07;5.10;;;0.60;99.90;;;;;;5070403;28;20849;-56
2023/02/28 07:29:04;;;;;;;10.20;4.30;;;0.50;99.90;;;;;;5068445;28;20873;-56
2023/02/28 07:31:29;;;;;;;12.93;3.85;;;0.40;99.90;;;;;;5069790;28;20478;-56
2023/02/28 07:33:56;;;;;;;11.98;4.78;;;0.40;99.90;;;;;;5068785;28;20921;-56
2023/02/28 07:36:21;;;;;;;10.27;4.25;;;0.40;99.90;;;;;;5069233;28;20380;-56
2023/02/28 07:38:49;;;;;;;14.90;5.17;;;0.20;99.90;;;;;;5069727;28;20439;-56
2023/02/28 07:41:17;;;;;;;11.02;4.45;;;0.30;99.90;;;;;;5068477;28;20396;-56
2023/02/28 07:43:44;;;;;;;11.35;4.35;;;0.40;99.90;;;;;;5069478;28;20436;-56
2023/02/28 07:46:12;;;;;;;13.37;5.43;;;0.40;99.90;;;;;;5069335;28;20391;-56
2023/02/28 07:48:38;;;;;;;11.20;4.70;;;0.50;99.90;;;;;;5069767;28;20380;-57
2023/02/28 07:51:04;;;;;;;14.93;5.35;;;0.60;99.90;;;;;;5068756;28;20384;-57
2023/02/28 07:53:30;;;;;;;10.35;4.68;;;0.70;99.90;;;;;;5070027;28;20885;-57
2023/02/28 07:55:57;;;;;;;12.23;4.88;;;0.70;99.90;;;;;;5069682;28;20455;-57
2023/02/28 07:58:25;;;;;;;10.93;4.78;;;0.80;99.90;;;;;;5069461;28;20732;-56
2023/02/28 08:00:51;;;;;;;12.68;5.00;;;0.70;99.90;;;;;;5069200;28;20412;-56
2023/02/28 08:03:21;;;;;;;10.18;4.30;;;0.70;99.90;;;;;;5069727;28;20752;-56
2023/02/28 08:05:47;;;;;;;11.57;4.88;;;0.70;99.90;;;;;;5069779;28;20376;-56
2023/02/28 08:08:13;;;;;;;11.83;5.10;;;0.80;99.90;;;;;;5069158;28;20483;-56
2023/02/28 08:10:39;;;;;;;14.65;5.53;;;0.90;99.90;;;;;;5069800;28;20388;-56
2023/02/28 08:13:05;;;;;;;14.02;5.00;;;0.70;99.90;;;;;;5068987;28;20379;-56
2023/02/28 08:15:30;;;;;;;12.40;5.60;;;0.90;99.90;;;;;;5070247;28;20386;-56
2023/02/28 08:17:57;;;;;;;14.00;6.07;;;0.90;99.90;;;;;;5068707;28;20383;-56
2023/02/28 08:20:24;;;;;;;14.80;5.03;;;1.00;99.90;;;;;;5069700;28;20406;-56
2023/02/28 08:22:49;;;;;;;13.10;4.85;;;0.90;99.90;;;;;;5069701;28;20463;-56
2023/02/28 08:25:15;;;;;;;10.45;4.45;;;1.10;99.90;;;;;;5068559;28;20581;-56
2023/02/28 08:27:41;;;;;;;13.40;5.30;;;0.90;99.90;;;;;;5069162;28;20380;-56
2023/02/28 08:30:10;;;;;;;11.40;5.43;;;0.70;99.90;;;;;;5069491;28;20375;-56
2023/02/28 08:32:35;;;;;;;15.63;5.50;;;0.70;99.90;;;;;;5069277;28;20455;-58
2023/02/28 08:35:02;;;;;;;13.13;5.57;;;0.80;99.90;;;;;;5068757;28;20829;-56
2023/02/28 08:37:28;;;;;;;13.20;5.38;;;1.10;99.90;;;;;;5068884;28;20783;-56
2023/02/28 08:39:53;;;;;;;13.38;5.13;;;1.20;99.90;;;;;;5069361;28;20392;-56
2023/02/28 08:42:20;;;;;;;13.13;5.80;;;1.10;99.90;;;;;;5069339;28;20419;-56
2023/02/28 08:44:45;;;;;;;11.90;4.75;;;1.10;99.90;;;;;;5069476;28;20387;-56
2023/02/28 08:47:11;;;;;;;14.13;5.50;;;1.10;99.90;;;;;;5068246;28;20872;-56
2023/02/28 08:49:37;;;;;;;11.53;5.37;;;1.10;99.90;;;;;;5069575;28;20411;-56
2023/02/28 08:52:03;;;;;;;14.52;6.00;;;1.20;99.90;;;;;;5068842;28;20421;-56
2023/02/28 08:54:31;;;;;;;11.63;5.25;;;2.50;99.90;;;;;;5068777;28;20383;-56
2023/02/28 08:56:57;;;;;;;13.38;6.38;;;1.10;99.90;;;;;;5068322;28;20394;-58
2023/02/28 08:59:23;;;;;;;12.15;5.25;;;1.30;99.90;;;;;;5067990;28;20383;-56
2023/02/28 09:01:49;;;;;;;13.63;5.88;;;1.30;99.90;;;;;;5069216;28;20396;-56
2023/02/28 09:04:14;;;;;;;15.67;5.73;;;1.30;99.90;;;;;;5068453;28;20384;-56
2023/02/28 09:06:40;;;;;;;14.90;6.20;;;1.20;99.90;;;;;;5068786;28;20470;-56
2023/02/28 09:09:07;;;;;;;14.90;6.00;;;1.30;99.90;;;;;;5068436;28;20384;-56
2023/02/28 09:11:34;;;;;;;14.63;5.80;;;1.30;99.90;;;;;;5072438;28;20453;-56
2023/02/28 09:14:02;;;;;;;18.35;6.35;;;1.80;99.90;;;;;;5072353;28;20379;-56
2023/02/28 09:16:29;;;;;;;14.00;5.90;;;1.40;99.90;;;;;;5072407;28;20457;-56
2023/02/28 09:18:54;;;;;;;13.15;5.63;;;1.50;99.90;;;;;;5072273;28;20881;-56
2023/02/28 09:21:20;;;;;;;15.80;5.75;;;1.60;99.90;;;;;;5073119;28;20406;-56
2023/02/28 09:23:48;;;;;;;14.75;5.80;;;1.60;99.90;;;;;;5072393;28;20396;-56
2023/02/28 09:26:16;;;;;;;18.47;6.10;;;1.60;99.90;;;;;;5071962;28;21053;-56
2023/02/28 09:28:42;;;;;;;12.88;5.40;;;1.70;99.90;;;;;;5072260;28;20407;-56
2023/02/28 09:31:16;;;;;;;14.17;5.67;;;1.70;99.90;;;;;;5071641;28;20379;-56
2023/02/28 09:33:41;;;;;;;16.20;6.20;;;1.80;99.90;;;;;;5072436;28;20420;-56
2023/02/28 09:36:07;;;;;;;15.30;6.17;;;2.00;99.90;;;;;;5072386;28;20476;-56
2023/02/28 09:38:33;;;;;;;13.25;5.55;;;2.20;99.90;;;;;;5072505;28;20896;-56
2023/02/28 09:41:01;;;;;;;14.27;5.97;;;2.00;99.90;;;;;;5071628;28;20404;-56
2023/02/28 09:43:36;;;;;;;17.52;6.25;;;1.90;99.90;;;;;;5072415;28;20857;-56
2023/02/28 09:46:29;;;;;;;12.60;5.47;;;2.20;99.90;;;;;;5071778;28;20408;-56
2023/02/28 09:48:55;;;;;;;12.63;5.15;;;2.50;99.90;;;;;;5071772;28;20375;-57
2023/02/28 09:51:35;;;;;;;15.82;6.60;;;2.60;99.90;;;;;;5072275;28;20372;-56
2023/02/28 09:54:01;;;;;;;18.80;6.90;;;2.60;99.90;;;;;;5071319;28;20431;-57
2023/02/28 09:56:39;;;;;;;15.50;6.03;;;2.50;99.90;;;;;;5072228;28;20388;-56
2023/02/28 10:00:09;;;;;;;13.20;6.22;;;2.40;99.90;;;;;;5071165;28;20737;-56
2023/02/28 10:02:53;;;;;;;18.33;6.70;;;2.40;99.90;;;;;;5029696;28;20391;-56
2023/02/28 10:05:23;;;;;;;14.57;5.75;;;2.50;99.90;;;;;;5071627;28;20407;-56
2023/02/28 10:08:18;;;;;;;15.83;6.23;;;3.40;99.90;;;;;;5071724;28;20407;-56
2023/02/28 10:10:48;;;;;;;14.85;6.30;;;2.30;99.90;;;;;;5072564;28;20386;-56
2023/02/28 10:13:45;;;;;;;15.35;6.45;;;2.50;99.90;;;;;;5070745;28;20944;-56
2023/02/28 10:16:17;;;;;;;14.82;6.78;;;2.80;99.90;;;;;;5071087;28;20487;-56
2023/02/28 10:18:54;;;;;;;17.08;6.95;;;2.90;99.90;;;;;;5071485;28;20376;-56
2023/02/28 10:21:25;;;;;;;15.05;6.25;;;3.10;99.90;;;;;;5070795;28;20495;-56
2023/02/28 10:23:58;;;;;;;13.65;5.93;;;3.20;99.90;;;;;;5071316;28;20368;-56
2023/02/28 10:26:28;;;;;;;14.93;5.90;;;3.40;99.90;;;;;;5072436;28;20391;-56
2023/02/28 10:28:54;;;;;;;17.88;6.22;;;3.50;99.90;;;;;;5070735;28;20408;-57
2023/02/28 10:31:20;;;;;;;15.83;6.97;;;3.70;99.90;;;;;;5071473;28;20395;-56
2023/02/28 10:33:46;;;;;;;16.67;6.90;;;3.70;99.90;;;;;;5071361;28;20400;-56
2023/02/28 10:36:18;;;;;;;15.02;6.45;;;3.50;99.90;;;;;;5071336;28;20837;-56
2023/02/28 10:38:46;;;;;;;16.00;6.30;;;3.30;99.90;;;;;;5071335;28;20436;-56
2023/02/28 10:41:15;;;;;;;16.33;7.13;;;3.30;99.90;;;;;;5070261;28;21060;-57
2023/02/28 10:43:44;;;;;;;16.48;6.75;;;3.10;99.90;;;;;;5071066;28;20479;-56
2023/02/28 10:46:10;;;;;;;14.45;7.00;;;3.20;99.90;;;;;;5070295;28;20380;-56
2023/02/28 10:49:03;;;;;;;15.90;6.60;;;3.80;99.90;;;;;;5070781;28;20392;-57
2023/02/28 10:51:36;;;;;;;16.10;6.75;;;4.10;99.90;;;;;;5071105;28;20392;-57
2023/02/28 10:54:03;;;;;;;19.58;8.02;;;4.30;99.90;;;;;;5070119;28;20437;-57
2023/02/28 10:56:29;;;;;;;15.27;6.88;;;4.60;99.90;;;;;;5070563;28;20407;-56
2023/02/28 10:58:59;;;;;;;14.25;5.82;;;4.20;99.90;;;;;;5069995;28;20382;-57
2023/02/28 11:01:45;;;;;;;15.47;6.70;;;3.70;99.90;;;;;;5070615;28;20399;-57
2023/02/28 11:04:32;;;;;;;15.65;6.65;;;3.90;99.90;;;;;;5068716;28;20383;-57
2023/02/28 11:07:03;;;;;;;14.00;6.70;;;4.00;99.90;;;;;;5070148;28;20395;-57
2023/02/28 11:09:50;;;;;;;14.30;6.78;;;4.00;99.90;;;;;;5070405;28;20398;-57
2023/02/28 11:12:26;;;;;;;13.60;6.43;;;4.20;99.90;;;;;;5069757;28;20384;-57
2023/02/28 11:14:58;;;;;;;14.30;6.75;;;4.20;99.90;;;;;;5070345;28;20927;-57
2023/02/28 11:17:29;;;;;;;15.48;7.25;;;4.60;99.90;;;;;;5070918;28;20441;-57
2023/02/28 11:20:07;;;;;;;16.27;7.40;;;4.90;99.90;;;;;;5069898;28;20379;-57
2023/02/28 11:22:43;;;;;;;14.23;6.67;;;4.90;99.90;;;;;;5070300;28;20392;-57
2023/02/28 11:25:27;;;;;;;15.67;6.40;;;5.00;99.90;;;;;;5069598;28;20408;-57
2023/02/28 11:28:01;;;;;;;16.20;7.47;;;4.80;99.90;;;;;;5070127;28;20719;-57
2023/02/28 11:30:36;;;;;;;15.15;6.80;;;4.80;99.90;;;;;;5070196;28;20415;-57
2023/02/28 11:33:52;;;;;;;13.32;6.15;;;4.80;99.90;;;;;;5069039;28;20387;-57
2023/02/28 11:36:27;;;;;;;15.73;7.10;;;5.20;99.90;;;;;;5065419;28;20526;-57
2023/02/28 11:39:04;;;;;;;14.68;6.75;;;5.60;99.90;;;;;;5069877;28;20971;-57
2023/02/28 11:41:51;;;;;;;13.88;6.40;;;6.00;99.90;;;;;;5069790;28;20403;-57
2023/02/28 11:45:15;;;;;;;13.93;5.80;;;6.10;99.90;;;;;;5069136;28;20614;-57
2023/02/28 11:48:02;;;;;;;14.85;6.60;;;6.30;99.90;;;;;;5027771;28;20405;-57
2023/02/28 11:50:49;;;;;;;14.65;6.90;;;6.50;99.90;;;;;;5069878;28;20384;-57
2023/02/28 11:53:40;;;;;;;12.23;6.25;;;6.50;99.90;;;;;;5068740;28;20380;-57
2023/02/28 11:56:21;;;;;;;16.25;6.43;;;6.60;99.90;;;;;;5068824;28;20877;-57
2023/02/28 11:59:09;;;;;;;15.13;6.50;;;6.90;99.90;;;;;;5069879;28;20388;-57
2023/02/28 12:01:49;;;;;;;15.48;6.75;;;7.90;99.90;;;;;;5069806;28;20407;-57
2023/02/28 12:04:33;;;;;;;15.20;6.63;;;7.30;99.90;;;;;;5068718;28;20411;-57
2023/02/28 12:07:18;;;;;;;15.57;7.07;;;7.90;99.90;;;;;;5068524;28;20456;-57
2023/02/28 12:09:58;;;;;;;15.23;7.40;;;8.20;99.90;;;;;;5069172;28;20386;-57
2023/02/28 12:12:23;;;;;;;13.60;6.82;;;8.40;99.90;;;;;;5069750;28;20387;-57
2023/02/28 12:15:10;;;;;;;14.00;6.43;;;8.70;99.90;;;;;;5069379;28;20391;-57
2023/02/28 12:17:48;;;;;;;14.07;6.68;;;8.50;99.90;;;;;;5069411;28;20386;-57
2023/02/28 12:20:48;;;;;;;15.15;6.13;;;8.60;99.90;;;;;;5069265;28;20396;-57
2023/02/28 12:23:47;;;;;;;16.27;7.15;;;9.00;99.90;;;;;;5068066;28;20410;-57
2023/02/28 12:26:34;;;;;;;14.35;6.70;;;8.40;99.90;;;;;;5068789;28;20481;-57
2023/02/28 12:29:23;;;;;;;15.77;6.80;;;8.10;99.90;;;;;;5068771;28;20410;-55
2023/02/28 12:32:12;;;;;;;13.25;5.70;;;8.20;99.90;;;;;;5069773;28;20408;-58
2023/02/28 12:35:24;;;;;;;14.23;6.47;;;8.10;99.90;;;;;;5069449;28;20399;-58
2023/02/28 12:38:10;;;;;;;14.52;6.13;;;8.00;99.90;;;;;;5059086;28;20392;-58
2023/02/28 12:40:47;;;;;;;15.23;5.97;;;8.00;99.90;;;;;;5069460;28;20403;-58
2023/02/28 12:43:16;;;;;;;13.85;6.05;;;7.70;99.90;;;;;;5068497;28;20392;-58
2023/02/28 12:45:59;;;;;;;14.43;6.00;;;8.70;99.90;;;;;;5071749;28;20384;-58
2023/02/28 12:48:42;;;;;;;13.90;6.90;;;8.90;99.90;;;;;;5073940;28;20852;-58
2023/02/28 12:51:09;;;;;;;14.18;6.18;;;7.30;99.90;;;;;;5072687;28;20375;-58
2023/02/28 12:53:43;;;;;;;11.45;5.70;;;7.20;99.90;;;;;;5073399;28;20864;-58
2023/02/28 12:56:44;;;;;;;12.43;5.70;;;7.30;99.90;;;;;;5073096;28;20400;-58
2023/02/28 12:59:27;;;;;;;12.40;5.40;;;6.60;99.90;;;;;;5071903;28;20414;-58
2023/02/28 13:02:09;;;;;;;14.90;6.43;;;6.60;99.90;;;;;;5073015;28;20753;-57
2023/02/28 13:05:05;;;;;;;13.82;6.03;;;7.80;99.90;;;;;;5072918;28;20372;-57
2023/02/28 13:08:02;;;;;;;13.83;5.93;;;7.00;99.90;;;;;;5072854;28;20387;-57
2023/02/28 13:10:46;;;;;;;15.00;6.18;;;7.30;99.90;;;;;;5072919;28;20391;-57
2023/02/28 13:13:25;;;;;;;15.50;6.65;;;7.40;99.90;;;;;;5071888;28;20445;-57